Time;durP1;ratioP1;P1;durP2;ratioP2;P2;SDS_P1;SDS_P2;PMS_P1;PMS_P2;Temp;Humidity;BMP_temperature;BMP_pressure;BME280_temperature;BME280_humidity;BME280_pressure;Samples;Min_cycle;Max_cycle;Signal;HPM_P1;HPM_P2
2021/05/09 00:01:05;;;;;;;9.60;5.47;;;;;;;23.91;35.89;100320.97;5053080;28;20900;-50
2021/05/09 00:03:32;;;;;;;9.30;5.30;;;;;;;22.28;38.13;100318.44;5054581;28;20767;-47
2021/05/09 00:05:59;;;;;;;12.30;7.33;;;;;;;22.99;36.98;100316.50;5052775;28;20955;-48
2021/05/09 00:08:26;;;;;;;9.67;4.67;;;;;;;22.41;37.65;100317.38;5054527;28;20521;-47
2021/05/09 00:10:53;;;;;;;8.37;5.43;;;;;;;23.36;36.62;100315.00;5053203;28;20553;-49
2021/05/09 00:13:20;;;;;;;7.20;4.60;;;;;;;23.32;35.54;100315.09;5056118;28;20495;-51
2021/05/09 00:15:49;;;;;;;10.70;4.70;;;;;;;22.80;36.18;100311.56;5058673;28;20455;-47
2021/05/09 00:18:15;;;;;;;7.13;4.37;;;;;;;23.02;36.54;100305.94;5057612;28;20467;-47
2021/05/09 00:20:42;;;;;;;9.30;5.70;;;;;;;24.02;34.47;100299.69;5057882;28;20495;-47
2021/05/09 00:23:09;;;;;;;10.27;5.13;;;;;;;23.63;35.75;100296.97;5056777;28;20483;-48
2021/05/09 00:25:36;;;;;;;7.60;4.80;;;;;;;23.48;35.87;100288.47;5058289;28;20578;-50
2021/05/09 00:28:02;;;;;;;8.27;5.40;;;;;;;24.30;34.19;100288.53;5056614;28;20471;-46
2021/05/09 00:30:30;;;;;;;8.43;4.80;;;;;;;24.36;33.91;100282.28;5057067;28;20915;-48
2021/05/09 00:32:56;;;;;;;14.60;7.77;;;;;;;24.20;34.62;100281.75;5056600;28;20483;-48
2021/05/09 00:35:26;;;;;;;11.00;6.50;;;;;;;23.92;34.75;100277.94;5057948;28;20458;-48
2021/05/09 00:37:52;;;;;;;7.53;4.50;;;;;;;23.61;35.86;100278.56;5056839;28;20483;-47
2021/05/09 00:40:19;;;;;;;7.20;4.83;;;;;;;23.81;35.11;100269.38;5057554;28;20481;-47
2021/05/09 00:42:45;;;;;;;10.10;4.30;;;;;;;23.03;36.46;100278.75;5056224;28;20479;-47
2021/05/09 00:45:13;;;;;;;7.63;4.60;;;;;;;24.60;33.77;100277.34;5057697;28;20486;-47
2021/05/09 00:47:40;;;;;;;8.97;5.13;;;;;;;24.71;33.85;100269.16;5056239;28;20473;-47
2021/05/09 00:50:08;;;;;;;11.33;6.20;;;;;;;24.16;34.50;100273.06;5056720;28;20558;-48
2021/05/09 00:52:37;;;;;;;8.10;4.80;;;;;;;24.04;34.57;100274.16;5056070;28;20467;-46
2021/05/09 00:55:07;;;;;;;9.80;5.30;;;;;;;23.70;35.16;100267.00;5057553;28;20455;-48
2021/05/09 00:57:35;;;;;;;9.77;4.70;;;;;;;24.49;33.80;100262.63;5056687;28;20566;-47
2021/05/09 01:00:05;;;;;;;12.27;4.60;;;;;;;24.74;33.31;100262.03;5057442;28;20470;-48
2021/05/09 01:02:32;;;;;;;7.23;4.60;;;;;;;25.01;33.43;100258.75;5056493;28;20951;-48
2021/05/09 01:05:01;;;;;;;7.73;4.43;;;;;;;25.80;31.95;100255.72;5057642;28;20838;-49
2021/05/09 01:07:27;;;;;;;10.57;4.97;;;;;;;25.00;32.82;100257.88;5056305;28;20487;-48
2021/05/09 01:09:54;;;;;;;11.67;5.90;;;;;;;24.96;32.96;100258.00;5057213;28;20455;-47
2021/05/09 01:12:21;;;;;;;21.03;10.33;;;;;;;25.27;32.58;100254.53;5056170;28;20473;-47
2021/05/09 01:14:48;;;;;;;6.37;4.00;;;;;;;24.77;33.31;100254.03;5057209;28;20924;-49
2021/05/09 01:17:15;;;;;;;9.50;5.90;;;;;;;24.36;34.03;100255.91;5056223;28;20475;-48
2021/05/09 01:19:42;;;;;;;8.50;5.40;;;;;;;25.17;32.88;100257.41;5057285;28;20459;-47
2021/05/09 01:22:11;;;;;;;6.87;4.13;;;;;;;24.97;33.15;100259.72;5056062;28;20787;-46
2021/05/09 01:24:37;;;;;;;8.53;3.97;;;;;;;23.85;34.81;100253.47;5056067;28;20777;-50
2021/05/09 01:27:05;;;;;;;6.97;4.43;;;;;;;25.45;32.05;100256.66;5053372;28;20483;-46
2021/05/09 01:29:31;;;;;;;7.20;3.70;;;;;;;25.46;32.05;100250.47;5057080;28;20535;-47
2021/05/09 01:31:59;;;;;;;10.90;6.10;;;;;;;25.65;31.80;100257.03;5056004;28;20956;-48
2021/05/09 01:34:33;;;;;;;7.60;3.87;;;;;;;24.17;34.46;100256.34;5057337;28;20955;-48
2021/05/09 01:37:00;;;;;;;6.30;4.13;;;;;;;25.06;32.51;100263.00;5054161;28;20798;-47
2021/05/09 01:39:27;;;;;;;8.83;4.10;;;;;;;26.00;31.62;100255.13;5057300;28;20466;-48
2021/05/09 01:41:54;;;;;;;9.50;4.20;;;;;;;25.19;32.39;100254.75;5055675;28;20490;-49
2021/05/09 01:44:20;;;;;;;6.70;4.00;;;;;;;24.94;33.33;100260.69;5056891;28;20460;-49
2021/05/09 01:46:47;;;;;;;5.40;3.33;;;;;;;22.08;37.59;100257.41;5055709;28;20574;-47
2021/05/09 01:49:14;;;;;;;6.07;3.73;;;;;;;24.09;34.60;100253.88;5056921;28;20464;-46
2021/05/09 01:51:40;;;;;;;5.63;3.63;;;;;;;24.04;34.51;100250.44;5055372;28;20555;-47
2021/05/09 01:54:07;;;;;;;7.17;3.43;;;;;;;24.85;33.10;100258.28;5057258;28;20777;-46
2021/05/09 01:56:34;;;;;;;5.80;3.53;;;;;;;25.55;32.34;100248.50;5055453;28;20488;-46
2021/05/09 01:59:01;;;;;;;18.33;10.10;;;;;;;25.19;32.26;100254.75;5056561;28;20777;-47
2021/05/09 02:01:27;;;;;;;7.43;3.20;;;;;;;25.02;32.93;100249.94;5055289;28;20911;-48
2021/05/09 02:03:54;;;;;;;8.30;3.90;;;;;;;25.25;32.65;100245.78;5056694;28;20455;-48
2021/05/09 02:06:21;;;;;;;11.07;6.63;;;;;;;26.07;31.11;100239.91;5055514;28;20478;-47
2021/05/09 02:08:47;;;;;;;12.73;5.60;;;;;;;26.13;31.06;100245.00;5056773;28;20456;-50
2021/05/09 02:11:14;;;;;;;4.97;3.50;;;;;;;25.72;31.31;100248.88;5055077;28;20478;-47
2021/05/09 02:13:41;;;;;;;8.00;4.90;;;;;;;27.27;29.80;100241.28;5056679;28;20768;-48
2021/05/09 02:16:08;;;;;;;6.73;4.00;;;;;;;26.60;30.33;100236.47;5055327;28;20458;-47
2021/05/09 02:18:34;;;;;;;6.93;3.90;;;;;;;25.64;32.23;100237.69;5056380;28;20838;-48
2021/05/09 02:21:01;;;;;;;7.87;4.87;;;;;;;26.19;30.70;100242.16;5054463;28;20885;-47
2021/05/09 02:23:28;;;;;;;6.20;3.67;;;;;;;26.54;30.04;100234.91;5056371;28;20582;-49
2021/05/09 02:25:54;;;;;;;5.07;3.80;;;;;;;27.11;29.47;100244.47;5055351;28;20483;-49
2021/05/09 02:28:21;;;;;;;7.17;3.80;;;;;;;26.48;30.40;100239.53;5056086;28;20930;-52
2021/05/09 02:30:48;;;;;;;9.43;3.60;;;;;;;26.62;30.59;100239.97;5055976;28;20773;-49
2021/05/09 02:33:15;;;;;;;5.47;3.10;;;;;;;26.66;30.54;100246.84;5055430;28;20542;-47
2021/05/09 02:35:41;;;;;;;9.73;4.67;;;;;;;26.65;30.29;100238.97;5055800;28;20539;-47
2021/05/09 02:38:08;;;;;;;11.47;6.13;;;;;;;28.03;28.70;100219.91;5054833;28;20484;-48
2021/05/09 02:40:35;;;;;;;6.47;3.30;;;;;;;27.19;29.10;100231.84;5055384;28;20455;-47
2021/05/09 02:43:01;;;;;;;10.93;5.10;;;;;;;27.02;29.44;100223.66;5054669;28;20598;-49
2021/05/09 02:45:28;;;;;;;8.80;3.80;;;;;;;26.81;30.25;100228.75;5055858;28;20479;-49
2021/05/09 02:47:58;;;;;;;8.23;5.00;;;;;;;27.41;29.33;100231.06;5054581;28;20484;-47
2021/05/09 02:50:24;;;;;;;6.87;3.50;;;;;;;27.27;29.53;100218.31;5055565;28;20894;-47
2021/05/09 02:52:51;;;;;;;7.10;3.70;;;;;;;27.28;29.35;100219.19;5054513;28;20589;-50
2021/05/09 02:55:17;;;;;;;11.40;6.23;;;;;;;27.58;29.12;100222.50;5055704;28;20550;-50
2021/05/09 02:57:44;;;;;;;8.73;3.47;;;;;;;28.91;27.25;100220.75;5054437;28;20571;-48
2021/05/09 03:00:12;;;;;;;9.70;5.70;;;;;;;28.95;27.04;100226.78;5055354;28;20456;-48
2021/05/09 03:02:57;;;;;;;6.67;4.20;;;;;;;28.77;27.38;100223.13;5054849;28;20935;-49
2021/05/09 03:05:24;;;;;;;7.57;2.60;;;;;;;28.61;27.44;100223.75;5055551;28;20519;-49
2021/05/09 03:07:51;;;;;;;7.67;3.53;;;;;;;28.39;27.59;100229.09;5054757;28;20471;-50
2021/05/09 03:10:17;;;;;;;6.57;3.50;;;;;;;28.77;27.61;100226.66;5055354;28;20459;-49
2021/05/09 03:12:44;;;;;;;7.30;3.77;;;;;;;28.95;27.15;100222.34;5054290;28;20484;-47
2021/05/09 03:15:11;;;;;;;8.33;3.50;;;;;;;27.68;28.74;100225.66;5055642;28;20491;-49
2021/05/09 03:17:38;;;;;;;6.40;3.80;;;;;;;28.32;27.84;100228.50;5054237;28;20486;-47
2021/05/09 03:20:07;;;;;;;7.03;3.23;;;;;;;28.83;27.12;100234.34;5055342;28;20543;-48
2021/05/09 03:22:33;;;;;;;7.53;4.00;;;;;;;28.56;27.31;100233.72;5054203;28;20475;-47
2021/05/09 03:25:00;;;;;;;5.90;3.70;;;;;;;26.99;29.24;100243.13;5055333;28;20459;-50
2021/05/09 03:27:27;;;;;;;5.43;3.73;;;;;;;26.53;30.61;100230.53;5054640;28;20480;-49
2021/05/09 03:29:54;;;;;;;5.20;3.10;;;;;;;26.77;29.95;100243.84;5055299;28;20464;-47
2021/05/09 03:32:20;;;;;;;6.50;3.63;;;;;;;27.38;29.08;100239.13;5054037;28;20486;-47
2021/05/09 03:34:48;;;;;;;5.90;3.50;;;;;;;27.65;28.89;100238.16;5055510;28;20459;-48
2021/05/09 03:37:15;;;;;;;9.83;4.87;;;;;;;28.40;27.63;100237.00;5053611;28;20490;-46
2021/05/09 03:39:42;;;;;;;6.20;3.77;;;;;;;27.99;28.58;100234.22;5054906;28;20849;-49
2021/05/09 03:42:08;;;;;;;8.90;3.53;;;;;;;28.37;27.94;100241.56;5054008;28;20767;-47
2021/05/09 03:44:35;;;;;;;5.40;3.37;;;;;;;27.77;28.95;100232.38;5055507;28;20554;-47
2021/05/09 03:47:02;;;;;;;6.73;4.03;;;;;;;28.49;27.56;100234.91;5053502;28;20478;-47
2021/05/09 03:49:28;;;;;;;7.37;4.27;;;;;;;28.24;28.08;100238.56;5058904;28;20513;-48
2021/05/09 03:51:55;;;;;;;11.17;4.27;;;;;;;27.67;28.64;100231.88;5057746;28;20490;-48
2021/05/09 03:54:22;;;;;;;5.40;3.37;;;;;;;27.62;28.84;100233.84;5059189;28;20455;-47
2021/05/09 03:56:49;;;;;;;5.57;3.73;;;;;;;28.17;28.21;100233.47;5058061;28;20486;-51
2021/05/09 03:59:16;;;;;;;5.10;3.20;;;;;;;27.67;28.59;100237.19;5059240;28;20814;-51
2021/05/09 04:01:42;;;;;;;7.13;3.80;;;;;;;28.57;27.34;100232.78;5057719;28;20489;-48
2021/05/09 04:04:09;;;;;;;6.23;3.80;;;;;;;28.52;27.29;100226.81;5059192;28;20455;-51
2021/05/09 04:06:35;;;;;;;7.63;4.00;;;;;;;28.69;27.38;100232.28;5057709;28;20483;-47
2021/05/09 04:09:05;;;;;;;6.83;3.90;;;;;;;28.39;27.96;100229.97;5058900;28;20462;-47
2021/05/09 04:11:32;;;;;;;7.53;3.73;;;;;;;29.01;26.75;100231.81;5057433;28;20482;-47
2021/05/09 04:13:59;;;;;;;5.60;3.73;;;;;;;28.49;27.20;100230.44;5059060;28;20455;-47
2021/05/09 04:16:25;;;;;;;7.53;3.60;;;;;;;28.92;26.86;100235.72;5057693;28;20479;-47
2021/05/09 04:18:52;;;;;;;7.90;3.90;;;;;;;28.40;27.26;100242.31;5058777;28;20888;-50
2021/05/09 04:21:19;;;;;;;7.87;4.00;;;;;;;29.08;27.00;100235.06;5056884;28;20922;-47
2021/05/09 04:23:45;;;;;;;4.00;3.07;;;;;;;28.52;27.40;100240.94;5058682;28;20459;-48
2021/05/09 04:26:12;;;;;;;11.63;3.50;;;;;;;28.43;27.27;100239.53;5057336;28;20475;-49
2021/05/09 04:28:39;;;;;;;11.03;6.17;;;;;;;28.99;26.80;100239.00;5058900;28;20455;-46
2021/05/09 04:31:06;;;;;;;10.90;5.50;;;;;;;28.93;27.25;100236.59;5057042;28;20861;-48
2021/05/09 04:33:32;;;;;;;5.90;3.30;;;;;;;28.66;27.15;100232.38;5057904;28;20460;-46
2021/05/09 04:35:59;;;;;;;7.30;3.60;;;;;;;28.86;26.83;100233.34;5057330;28;20458;-48
2021/05/09 04:38:26;;;;;;;5.80;3.40;;;;;;;28.98;27.14;100232.81;5058298;28;20483;-47
2021/05/09 04:40:52;;;;;;;6.47;4.37;;;;;;;29.35;26.55;100230.31;5057209;28;20477;-49
2021/05/09 04:43:19;;;;;;;6.20;3.60;;;;;;;29.22;26.32;100235.31;5058174;28;20509;-47
2021/05/09 04:45:48;;;;;;;8.70;4.20;;;;;;;29.56;26.51;100234.72;5058328;28;20483;-49
2021/05/09 04:48:15;;;;;;;7.57;3.60;;;;;;;28.68;27.47;100235.84;5057730;28;20466;-47
2021/05/09 04:50:41;;;;;;;7.37;3.87;;;;;;;29.10;26.64;100234.09;5057872;28;20845;-47
2021/05/09 04:53:25;;;;;;;10.77;4.00;;;;;;;29.03;26.97;100223.78;5056817;28;20477;-50
2021/05/09 04:55:52;;;;;;;5.70;3.40;;;;;;;29.19;26.75;100229.28;5057083;28;20458;-51
2021/05/09 04:58:18;;;;;;;6.30;3.33;;;;;;;29.49;26.50;100227.03;5057784;28;20483;-47
2021/05/09 05:00:45;;;;;;;9.80;5.60;;;;;;;29.77;25.66;100236.41;5057682;28;20456;-49
2021/05/09 05:03:13;;;;;;;6.40;3.17;;;;;;;29.83;25.82;100226.41;5056405;28;20485;-47
2021/05/09 05:05:39;;;;;;;9.10;3.13;;;;;;;30.71;24.79;100221.28;5057970;28;20571;-49
2021/05/09 05:08:06;;;;;;;7.40;3.80;;;;;;;30.54;25.07;100220.31;5056621;28;20484;-47
2021/05/09 05:10:33;;;;;;;6.10;3.40;;;;;;;30.17;25.61;100219.50;5057599;28;20502;-48
2021/05/09 05:12:59;;;;;;;7.30;2.93;;;;;;;29.66;25.97;100222.75;5056618;28;20491;-48
2021/05/09 05:15:26;;;;;;;7.93;3.53;;;;;;;29.61;26.51;100216.78;5057576;28;20468;-48
2021/05/09 05:17:56;;;;;;;4.47;2.97;;;;;;;29.66;25.71;100214.78;5056569;28;20512;-49
2021/05/09 05:20:24;;;;;;;6.13;3.53;;;;;;;28.94;26.85;100219.75;5057568;28;20463;-50
2021/05/09 05:22:50;;;;;;;15.20;8.87;;;;;;;29.80;25.98;100211.47;5056348;28;20498;-50
2021/05/09 05:25:17;;;;;;;6.00;2.83;;;;;;;30.02;25.59;100219.28;5057465;28;20495;-47
2021/05/09 05:27:43;;;;;;;4.90;3.13;;;;;;;30.24;25.38;100218.25;5056141;28;20482;-51
2021/05/09 05:30:11;;;;;;;7.27;2.70;;;;;;;29.63;25.80;100214.94;5056686;28;20933;-52
2021/05/09 05:32:40;;;;;;;5.73;2.90;;;;;;;28.78;26.92;100224.84;5056043;28;20506;-48
2021/05/09 05:35:07;;;;;;;3.90;2.60;;;;;;;28.53;27.82;100225.88;5057274;28;20894;-48
2021/05/09 05:37:35;;;;;;;6.53;3.30;;;;;;;28.56;27.35;100215.16;5056146;28;20491;-50
2021/05/09 05:40:02;;;;;;;4.60;3.00;;;;;;;28.61;27.17;100220.25;5057072;28;20776;-49
2021/05/09 05:42:28;;;;;;;6.83;3.50;;;;;;;29.86;25.71;100215.63;5055628;28;20789;-47
2021/05/09 05:44:55;;;;;;;5.23;3.00;;;;;;;29.55;26.33;100212.63;5057110;28;20453;-47
2021/05/09 05:47:22;;;;;;;4.90;2.80;;;;;;;29.35;26.39;100216.16;5055476;28;20486;-51
2021/05/09 05:49:49;;;;;;;9.47;4.90;;;;;;;29.99;26.00;100211.44;5056784;28;20465;-48
2021/05/09 05:52:15;;;;;;;6.13;2.57;;;;;;;29.63;25.94;100214.94;5055858;28;20492;-51
2021/05/09 05:54:42;;;;;;;5.73;2.73;;;;;;;29.75;25.74;100209.06;5056975;28;20470;-49
2021/05/09 05:57:09;;;;;;;6.70;2.97;;;;;;;29.34;26.10;100212.66;5055606;28;20778;-49
2021/05/09 05:59:36;;;;;;;8.00;4.60;;;;;;;30.49;25.32;100217.03;5056448;28;20542;-51
2021/05/09 06:02:02;;;;;;;10.93;4.33;;;;;;;30.41;24.96;100213.91;5055701;28;20585;-47
2021/05/09 06:04:29;;;;;;;5.00;2.63;;;;;;;29.56;26.02;100216.13;5057017;28;20466;-49
2021/05/09 06:06:56;;;;;;;8.87;4.90;;;;;;;30.56;25.52;100218.44;5055586;28;20486;-48
2021/05/09 06:09:22;;;;;;;9.17;4.37;;;;;;;31.06;24.95;100215.91;5056605;28;20458;-49
2021/05/09 06:11:50;;;;;;;6.23;3.20;;;;;;;31.40;23.51;100213.25;5054439;28;20497;-48
2021/05/09 06:14:16;;;;;;;6.80;3.00;;;;;;;30.68;24.85;100216.09;5056599;28;20997;-47
2021/05/09 06:16:51;;;;;;;7.30;3.07;;;;;;;30.68;24.94;100211.66;5053662;28;20476;-46
2021/05/09 06:19:18;;;;;;;5.43;3.00;;;;;;;30.61;24.77;100214.69;5056173;28;20821;-47
2021/05/09 06:21:44;;;;;;;4.97;2.90;;;;;;;29.80;25.34;100211.47;5055242;28;20503;-47
2021/05/09 06:24:11;;;;;;;5.67;2.67;;;;;;;30.63;24.97;100224.31;5056518;28;21320;-49
2021/05/09 06:26:38;;;;;;;7.27;3.13;;;;;;;30.77;25.13;100214.78;5054939;28;20505;-50
2021/05/09 06:29:05;;;;;;;26.77;12.50;;;;;;;30.67;25.43;100209.03;5056342;28;20546;-47
2021/05/09 06:31:32;;;;;;;7.53;2.33;;;;;;;31.42;24.56;100199.88;5054275;28;20493;-47
2021/05/09 06:33:59;;;;;;;5.70;2.80;;;;;;;29.96;26.00;100210.72;5050387;28;20477;-51
2021/05/09 06:36:26;;;;;;;9.57;4.87;;;;;;;29.99;26.38;100214.09;5047202;28;20469;-48
2021/05/09 06:38:52;;;;;;;5.37;2.90;;;;;;;29.04;27.27;100206.94;5036094;28;20462;-48
2021/05/09 06:41:20;;;;;;;28.17;13.10;;;;;;;29.49;25.97;100210.25;5034523;28;20608;-48
2021/05/09 06:43:51;;;;;;;7.50;2.90;;;;;;;31.11;24.90;100213.00;5036318;28;20456;-47
2021/05/09 06:46:18;;;;;;;33.20;17.23;;;;;;;30.42;25.17;100208.50;5034732;28;20480;-48
2021/05/09 06:48:45;;;;;;;11.60;4.90;;;;;;;30.26;25.83;100216.41;5035881;28;20475;-48
2021/05/09 06:51:11;;;;;;;4.77;2.53;;;;;;;31.27;24.42;100212.22;5038614;28;20473;-49
2021/05/09 06:53:38;;;;;;;6.10;3.03;;;;;;;31.53;24.09;100218.78;5044559;28;20465;-48
2021/05/09 06:56:05;;;;;;;4.50;2.70;;;;;;;30.11;25.57;100217.13;5034493;28;20507;-47
2021/05/09 06:58:31;;;;;;;6.73;3.37;;;;;;;31.30;24.35;100210.25;5035823;28;20463;-47
2021/05/09 07:00:58;;;;;;;5.93;2.80;;;;;;;31.83;23.77;100207.34;5034371;28;20567;-46
2021/05/09 07:03:25;;;;;;;6.33;2.97;;;;;;;31.01;24.06;100222.44;5035491;28;20552;-48
2021/05/09 07:05:53;;;;;;;6.10;3.00;;;;;;;31.57;24.04;100209.66;5034245;28;20494;-48
2021/05/09 07:08:20;;;;;;;4.80;2.60;;;;;;;31.09;24.78;100212.22;5035447;28;20502;-48
2021/05/09 07:10:46;;;;;;;17.23;8.90;;;;;;;32.68;23.35;100212.31;5035541;28;20488;-47
2021/05/09 07:13:13;;;;;;;4.80;2.73;;;;;;;29.69;26.50;100212.00;5034931;28;20465;-47
2021/05/09 07:15:41;;;;;;;4.40;2.43;;;;;;;30.77;25.22;100213.00;5035651;28;20551;-49
2021/05/09 07:18:10;;;;;;;7.33;4.07;;;;;;;31.91;23.94;100201.63;5034390;28;20788;-50
2021/05/09 07:20:40;;;;;;;8.37;3.67;;;;;;;29.70;26.72;100211.06;5035124;28;20460;-48
2021/05/09 07:23:07;;;;;;;6.80;2.30;;;;;;;29.25;26.87;100207.75;5033320;28;20483;-51
2021/05/09 07:25:34;;;;;;;4.33;1.87;;;;;;;31.78;24.47;100201.44;5045578;28;20451;-47
2021/05/09 07:28:05;;;;;;;12.67;5.73;;;;;;;32.52;23.63;100206.16;5054286;28;20519;-48
2021/05/09 07:30:31;;;;;;;6.40;2.87;;;;;;;32.12;23.90;100198.66;5055169;28;20460;-48
2021/05/09 07:32:58;;;;;;;7.03;2.87;;;;;;;32.29;23.83;100208.38;5053865;28;20491;-48
2021/05/09 07:35:24;;;;;;;10.37;4.80;;;;;;;32.59;23.32;100204.84;5054229;28;20468;-49
2021/05/09 07:37:52;;;;;;;6.50;2.80;;;;;;;32.19;23.88;100198.22;5053653;28;20484;-47
2021/05/09 07:40:19;;;;;;;6.40;2.97;;;;;;;30.93;25.66;100204.19;5055087;28;20462;-50
2021/05/09 07:42:46;;;;;;;6.63;2.60;;;;;;;30.62;25.72;100206.63;5053786;28;20788;-48
2021/05/09 07:45:16;;;;;;;8.43;2.77;;;;;;;31.11;25.33;100197.88;5055144;28;20453;-49
2021/05/09 07:47:43;;;;;;;5.87;2.07;;;;;;;31.47;25.51;100200.47;5053483;28;20545;-50
2021/05/09 07:50:11;;;;;;;4.97;2.57;;;;;;;33.51;22.79;100202.81;5054806;28;20546;-47
2021/05/09 07:52:38;;;;;;;20.70;7.00;;;;;;;33.76;22.26;100201.25;5053382;28;20546;-48
2021/05/09 07:55:07;;;;;;;7.43;2.20;;;;;;;33.07;23.12;100193.94;5054778;28;20465;-50
2021/05/09 07:57:33;;;;;;;8.90;2.77;;;;;;;32.86;23.56;100196.97;5053137;28;20479;-48
2021/05/09 08:00:00;;;;;;;6.10;2.10;;;;;;;32.14;24.06;100207.44;5054753;28;20465;-49
2021/05/09 08:02:27;;;;;;;5.87;2.83;;;;;;;33.43;23.03;100210.44;5053184;28;20575;-48
2021/05/09 08:04:54;;;;;;;6.90;3.40;;;;;;;32.60;23.76;100215.44;5055129;28;20512;-49
2021/05/09 08:07:21;;;;;;;9.80;2.70;;;;;;;32.37;24.33;100219.44;5053058;28;20475;-47
2021/05/09 08:09:48;;;;;;;7.40;2.77;;;;;;;31.42;25.25;100218.50;5054548;28;20467;-47
2021/05/09 08:12:15;;;;;;;6.00;2.70;;;;;;;32.02;24.72;100211.66;5053562;28;20932;-48
2021/05/09 08:14:42;;;;;;;7.93;3.70;;;;;;;32.63;23.73;100209.03;5054814;28;20456;-47
2021/05/09 08:17:09;;;;;;;10.13;5.27;;;;;;;32.28;24.14;100212.81;5053646;28;20579;-48
2021/05/09 08:19:36;;;;;;;9.40;3.90;;;;;;;32.84;23.56;100201.56;5054295;28;20942;-47
2021/05/09 08:22:03;;;;;;;11.47;5.00;;;;;;;32.05;24.26;100203.50;5053552;28;20967;-48
2021/05/09 08:24:29;;;;;;;8.90;4.13;;;;;;;30.28;26.69;100209.19;5054716;28;20461;-50
2021/05/09 08:26:56;;;;;;;5.80;2.80;;;;;;;32.08;23.98;100208.63;5052850;28;20948;-48
2021/05/09 08:29:24;;;;;;;4.63;2.30;;;;;;;33.34;22.85;100195.84;5054355;28;20785;-51
2021/05/09 08:31:51;;;;;;;12.97;5.23;;;;;;;32.64;23.79;100192.06;5053131;28;20787;-50
2021/05/09 08:34:18;;;;;;;9.57;4.30;;;;;;;32.16;24.54;100200.19;5056152;28;20913;-48
2021/05/09 08:36:44;;;;;;;11.17;4.33;;;;;;;32.44;24.68;100194.13;5056746;28;20489;-49
2021/05/09 08:39:11;;;;;;;9.33;4.33;;;;;;;32.53;23.93;100191.84;5057365;28;20928;-49
2021/05/09 08:41:39;;;;;;;7.67;3.17;;;;;;;31.26;25.32;100203.31;5056343;28;20784;-48
2021/05/09 08:44:07;;;;;;;9.40;4.33;;;;;;;32.00;24.33;100189.56;5058171;28;20587;-50
2021/05/09 08:46:35;;;;;;;11.53;4.50;;;;;;;32.68;23.87;100200.75;5056923;28;20491;-49
2021/05/09 08:49:03;;;;;;;10.60;3.90;;;;;;;33.61;22.99;100191.53;5057926;28;20789;-48
2021/05/09 08:51:30;;;;;;;6.10;2.30;;;;;;;34.57;21.93;100185.25;5056550;28;20486;-49
2021/05/09 08:53:57;;;;;;;13.90;4.73;;;;;;;33.67;22.81;100193.81;5058056;28;20464;-51
2021/05/09 08:56:24;;;;;;;8.07;2.60;;;;;;;33.72;22.82;100181.00;5056309;28;20470;-48
2021/05/09 08:58:51;;;;;;;6.27;2.70;;;;;;;34.85;21.48;100175.28;5057648;28;20467;-48
2021/05/09 09:01:17;;;;;;;5.17;2.40;;;;;;;35.64;20.49;100171.56;5056323;28;20477;-47
2021/05/09 09:03:45;;;;;;;4.80;2.03;;;;;;;33.42;22.94;100167.78;5057929;28;20459;-49
2021/05/09 09:06:16;;;;;;;6.67;2.80;;;;;;;35.54;20.76;100160.63;5056310;28;20483;-48
2021/05/09 09:08:49;;;;;;;5.87;2.33;;;;;;;33.93;22.46;100169.84;5057873;28;20463;-47
2021/05/09 09:11:25;;;;;;;9.70;4.23;;;;;;;33.95;22.33;100159.91;5056198;28;20503;-47
2021/05/09 09:14:07;;;;;;;11.80;5.50;;;;;;;35.65;20.72;100161.66;5057848;28;20470;-47
2021/05/09 09:16:34;;;;;;;7.23;2.93;;;;;;;33.67;22.66;100146.56;5056117;28;20939;-49
2021/05/09 09:19:08;;;;;;;9.20;3.63;;;;;;;32.95;23.43;100149.28;5057217;28;20452;-49
2021/05/09 09:21:35;;;;;;;6.03;3.13;;;;;;;33.15;23.30;100150.72;5055675;28;20935;-48
2021/05/09 09:24:05;;;;;;;10.30;3.93;;;;;;;33.87;22.61;100151.56;5057684;28;20474;-47
2021/05/09 09:26:38;;;;;;;12.37;4.23;;;;;;;33.71;22.97;100157.91;5055377;28;21001;-47
2021/05/09 09:29:24;;;;;;;8.27;2.70;;;;;;;35.94;20.68;100135.34;5057451;28;20452;-48
2021/05/09 09:31:53;;;;;;;5.23;2.10;;;;;;;35.82;20.36;100141.63;5055479;28;20486;-47
2021/05/09 09:34:22;;;;;;;8.73;3.37;;;;;;;34.23;21.57;100134.00;5056655;28;20923;-47
2021/05/09 09:36:49;;;;;;;6.70;2.43;;;;;;;34.33;22.06;100135.09;5055823;28;20478;-49
2021/05/09 09:39:15;;;;;;;5.90;2.20;;;;;;;35.84;20.44;100122.75;5057294;28;20479;-48
2021/05/09 09:41:46;;;;;;;17.40;7.27;;;;;;;34.55;21.36;100127.41;5055210;28;20498;-49
2021/05/09 09:44:15;;;;;;;8.33;3.33;;;;;;;35.67;20.68;100127.53;5056441;28;20462;-47
2021/05/09 09:46:48;;;;;;;15.10;7.17;;;;;;;35.89;20.70;100121.44;5054840;28;20563;-47
2021/05/09 09:49:31;;;;;;;7.53;2.20;;;;;;;37.44;19.30;100118.41;5056916;28;20463;-47
2021/05/09 09:51:59;;;;;;;17.90;7.70;;;;;;;36.57;19.63;100123.47;5055114;28;20490;-47
2021/05/09 09:54:43;;;;;;;20.37;8.97;;;;;;;33.96;22.33;100121.50;5056507;28;20468;-49
2021/05/09 09:57:11;;;;;;;7.10;2.63;;;;;;;33.51;22.74;100119.09;5045675;28;20571;-49
2021/05/09 09:59:38;;;;;;;18.93;7.33;;;;;;;34.12;21.98;100117.81;5056375;28;20521;-47
2021/05/09 10:02:06;;;;;;;12.03;5.20;;;;;;;33.97;22.32;100101.81;5055340;28;20475;-47
2021/05/09 10:04:34;;;;;;;8.70;4.63;;;;;;;35.92;20.81;100105.09;5056788;28;20459;-48
2021/05/09 10:07:05;;;;;;;15.63;8.77;;;;;;;34.95;21.27;100107.69;5055420;28;20487;-47
2021/05/09 10:09:32;;;;;;;14.40;7.63;;;;;;;35.17;21.41;100092.75;5056604;28;20539;-50
2021/05/09 10:11:59;;;;;;;9.90;5.20;;;;;;;36.11;20.46;100087.63;5055343;28;20566;-50
2021/05/09 10:14:25;;;;;;;5.90;2.27;;;;;;;37.66;19.30;100092.44;5056410;28;20466;-48
2021/05/09 10:16:52;;;;;;;6.07;2.87;;;;;;;36.67;19.48;100104.81;5055216;28;20486;-50
2021/05/09 10:19:23;;;;;;;5.57;2.77;;;;;;;36.21;20.10;100088.63;5056443;28;20749;-50
2021/05/09 10:21:51;;;;;;;5.57;2.20;;;;;;;36.89;19.49;100089.66;5054049;28;20479;-49
2021/05/09 10:24:19;;;;;;;9.93;5.13;;;;;;;35.59;20.29;100084.34;5056485;28;20542;-47
2021/05/09 10:26:48;;;;;;;26.53;10.97;;;;;;;36.58;19.73;100078.66;5054775;28;20483;-52
2021/05/09 10:29:57;;;;;;;8.63;3.23;;;;;;;35.22;21.13;100074.53;5056203;28;20460;-48
2021/05/09 10:32:49;;;;;;;5.80;2.53;;;;;;;37.01;19.04;100069.00;5034849;28;20566;-48
2021/05/09 10:35:18;;;;;;;10.50;4.60;;;;;;;35.47;20.67;100080.75;5036391;28;20510;-49
2021/05/09 10:38:04;;;;;;;4.13;1.93;;;;;;;35.28;20.79;100063.34;5035112;28;20502;-52
2021/05/09 10:40:34;;;;;;;10.40;4.50;;;;;;;37.27;18.79;100064.19;5053517;28;20782;-48
2021/05/09 10:43:37;;;;;;;10.23;4.23;;;;;;;36.77;19.70;100058.41;5051888;28;20463;-48
2021/05/09 10:46:08;;;;;;;11.20;3.93;;;;;;;37.46;18.37;100061.84;5052011;28;20516;-49
2021/05/09 10:48:35;;;;;;;6.70;2.43;;;;;;;38.07;18.05;100066.59;5055957;28;20467;-50
2021/05/09 10:51:26;;;;;;;7.20;3.17;;;;;;;35.33;20.74;100063.88;5054314;28;20451;-49
2021/05/09 10:53:54;;;;;;;7.20;3.37;;;;;;;35.17;20.54;100071.31;5053372;28;20774;-53
2021/05/09 10:56:33;;;;;;;4.70;1.83;;;;;;;36.24;19.97;100065.19;5054193;28;20934;-51
2021/05/09 10:59:01;;;;;;;10.90;4.80;;;;;;;35.57;20.40;100073.72;5055757;28;20784;-53
2021/05/09 11:01:33;;;;;;;9.97;3.40;;;;;;;36.38;19.41;100066.81;5054075;28;21396;-49
2021/05/09 11:04:01;;;;;;;9.23;2.23;;;;;;;37.75;18.62;100069.28;5055745;28;20456;-49
2021/05/09 11:06:46;;;;;;;9.03;2.13;;;;;;;37.74;18.31;100056.84;5054401;28;20509;-51
2021/05/09 11:09:15;;;;;;;5.60;2.63;;;;;;;37.77;18.21;100052.03;5055739;28;20459;-49
2021/05/09 11:11:56;;;;;;;4.87;2.00;;;;;;;36.30;18.96;100062.03;5053800;28;20498;-48
2021/05/09 11:14:23;;;;;;;6.37;3.00;;;;;;;35.49;19.26;100065.41;5055644;28;20717;-50
2021/05/09 11:17:02;;;;;;;6.73;2.30;;;;;;;37.29;17.52;100058.69;5054247;28;20507;-47
2021/05/09 11:19:40;;;;;;;6.80;3.10;;;;;;;36.96;18.21;100058.63;5035609;28;20546;-50
2021/05/09 11:22:08;;;;;;;7.70;2.30;;;;;;;37.66;17.93;100063.72;5034000;28;20584;-48
2021/05/09 11:24:37;;;;;;;5.20;1.87;;;;;;;38.34;16.71;100065.16;5037734;28;20981;-48
2021/05/09 11:27:11;;;;;;;5.67;2.30;;;;;;;36.73;18.23;100061.34;5053910;28;20940;-47
2021/05/09 11:29:40;;;;;;;6.53;2.70;;;;;;;38.60;17.06;100059.34;5054571;28;20761;-52